Terminal Aerodrome Forecast
Issued by NWS Billings, MT

Current Version | Previous Version | Text Only | Print | Product List | Glossary On
Versions: 1 2 3 4 5 6 7 8 9 10 11 12 13 14 15 16 17 18 19 20 21 22 23 24 25 26
000
FTUS45 KBYZ 291120
TAFBIL
TAF
KBIL 291120Z 2912/3012 VRB06KT P6SM VCSH BKN100 OVC200
     FM291800 10006KT P6SM VCTS SCT080CB
     FM292300 14011KT P6SM SCT060 BKN150=

USA.gov is the U.S. government's official web portal to all federal, state and local government web resources and services.